地図

経路データ

SID SEASON NUMBER BASIN SUBBASIN NAME ISO_TIME NATURE LAT LON WMO_WIND WMO_PRES WMO_AGENCY TRACK_TYPE DIST2LAND LANDFALL IFLAG USA_AGENCY USA_ATCF_ID USA_LAT USA_LON USA_RECORD USA_STATUS USA_WIND USA_PRES USA_SSHS USA_R34_NE USA_R34_SE USA_R34_SW USA_R34_NW USA_R50_NE USA_R50_SE USA_R50_SW USA_R50_NW USA_R64_NE USA_R64_SE USA_R64_SW USA_R64_NW USA_POCI USA_ROCI USA_RMW USA_EYE TOKYO_LAT TOKYO_LON TOKYO_GRADE TOKYO_WIND TOKYO_PRES TOKYO_R50_DIR TOKYO_R50_LONG TOKYO_R50_SHORT TOKYO_R30_DIR TOKYO_R30_LONG TOKYO_R30_SHORT TOKYO_LAND CMA_LAT CMA_LON CMA_CAT CMA_WIND CMA_PRES HKO_LAT HKO_LON HKO_CAT HKO_WIND HKO_PRES NEWDELHI_LAT NEWDELHI_LON NEWDELHI_GRADE NEWDELHI_WIND NEWDELHI_PRES NEWDELHI_CI NEWDELHI_DP NEWDELHI_POCI REUNION_LAT REUNION_LON REUNION_TYPE REUNION_WIND REUNION_PRES REUNION_TNUM REUNION_CI REUNION_RMW REUNION_R34_NE REUNION_R34_SE REUNION_R34_SW REUNION_R34_NW REUNION_R50_NE REUNION_R50_SE REUNION_R50_SW REUNION_R50_NW REUNION_R64_NE REUNION_R64_SE REUNION_R64_SW REUNION_R64_NW BOM_LAT BOM_LON BOM_TYPE BOM_WIND BOM_PRES BOM_TNUM BOM_CI BOM_RMW BOM_R34_NE BOM_R34_SE BOM_R34_SW BOM_R34_NW BOM_R50_NE BOM_R50_SE BOM_R50_SW BOM_R50_NW BOM_R64_NE BOM_R64_SE BOM_R64_SW BOM_R64_NW BOM_ROCI BOM_POCI BOM_EYE BOM_POS_METHOD BOM_PRES_METHOD NADI_LAT NADI_LON NADI_CAT NADI_WIND NADI_PRES WELLINGTON_LAT WELLINGTON_LON WELLINGTON_WIND WELLINGTON_PRES DS824_LAT DS824_LON DS824_STAGE DS824_WIND DS824_PRES TD9636_LAT TD9636_LON TD9636_STAGE TD9636_WIND TD9636_PRES TD9635_LAT TD9635_LON TD9635_WIND TD9635_PRES TD9635_ROCI NEUMANN_LAT NEUMANN_LON NEUMANN_CLASS NEUMANN_WIND NEUMANN_PRES MLC_LAT MLC_LON MLC_CLASS MLC_WIND MLC_PRES USA_GUST BOM_GUST BOM_GUST_PER REUNION_GUST REUNION_GUST_PER USA_SEAHGT USA_SEARAD_NE USA_SEARAD_SE USA_SEARAD_SW USA_SEARAD_NW STORM_SPEED STORM_DIR
1981178N05160 1981 43 WP MM LYNN 1981-06-27 00:00:00 NR 4.80000 159.900 main 1254 1222 __________O___ -1 4.80000 159.900 0 13 277
1981178N05160 1981 43 WP MM LYNN 1981-06-27 03:00:00 NR 4.88028 159.249 main 1216 1183 __________P___ -1 4.88028 159.249 0 13 277
1981178N05160 1981 43 WP MM LYNN 1981-06-27 06:00:00 NR 4.95819 158.608 main 1184 1144 __________P___ -1 4.95819 158.608 0 13 277
1981178N05160 1981 43 WP MM LYNN 1981-06-27 09:00:00 NR 5.03199 157.988 main 1144 1116 __________P___ -1 5.03199 157.988 0 12 277
1981178N05160 1981 43 WP MM LYNN 1981-06-27 12:00:00 NR 5.10000 157.400 main 1116 1093 __________O___ -1 5.10000 157.400 0 11 277
1981178N05160 1981 43 WP MM LYNN 1981-06-27 15:00:00 NR 5.16244 156.849 main 1091 1062 __________P___ -1 5.16244 156.849 0 11 277
1981178N05160 1981 43 WP MM LYNN 1981-06-27 18:00:00 NR 5.22698 156.315 main 1062 1045 __________P___ -1 5.22698 156.315 0 11 277
1981178N05160 1981 43 WP MM LYNN 1981-06-27 21:00:00 NR 5.30304 155.774 main 1045 1025 __________P___ -1 5.30304 155.774 0 11 279
1981178N05160 1981 43 WP MM LYNN 1981-06-28 00:00:00 NR 5.40000 155.200 main 1025 1006 __________O___ -1 5.40000 155.200 0 12 281
1981178N05160 1981 43 WP MM LYNN 1981-06-28 03:00:00 NR 5.54477 154.545 main 1002 995 __________P___ -1 5.54477 154.545 0 14 283
1981178N05160 1981 43 WP MM LYNN 1981-06-28 06:00:00 NR 5.70763 153.858 main 998 989 __________P___ -1 5.70763 153.858 0 14 283
1981178N05160 1981 43 WP MM LYNN 1981-06-28 09:00:00 NR 5.86664 153.167 main 997 986 __________P___ -1 5.86664 153.167 0 14 282
1981178N05160 1981 43 WP MM LYNN 1981-06-28 12:00:00 NR 6.00000 152.500 main 991 985 __________O___ -1 6.00000 152.500 0 13 279
1981178N05160 1981 43 WP MM LYNN 1981-06-28 15:00:00 NR 6.07422 151.912 main 992 987 __________P___ -1 6.07422 151.912 0 12 276
1981178N05160 1981 43 WP MM LYNN 1981-06-28 18:00:00 NR 6.12185 151.350 main 987 986 __________P___ -1 6.12185 151.350 0 11 274
1981178N05160 1981 43 WP MM LYNN 1981-06-28 21:00:00 NR 6.15858 150.787 main 997 980 __________P___ -1 6.15858 150.787 0 11 274
1981178N05160 1981 43 WP MM LYNN 1981-06-29 00:00:00 NR 6.20000 150.200 main 980 964 __________O___ -1 6.20000 150.200 0 12 275
1981178N05160 1981 43 WP MM LYNN 1981-06-29 03:00:00 NR 6.25971 149.542 main 969 955 __________P___ -1 6.25971 149.542 0 13 275
1981178N05160 1981 43 WP MM LYNN 1981-06-29 06:00:00 NR 6.32754 148.857 main 955 952 __________P___ -1 6.32754 148.857 0 14 276
1981178N05160 1981 43 WP MM LYNN 1981-06-29 09:00:00 NR 6.40658 148.170 main 956 954 __________P___ -1 6.40658 148.170 0 14 277
1981178N05160 1981 43 WP MM LYNN 1981-06-29 12:00:00 NR 6.50000 147.500 main 963 963 __________O___ -1 6.50000 147.500 0 13 278
1981178N05160 1981 43 WP MM LYNN 1981-06-29 15:00:00 NR 6.58971 146.907 main 974 974 __________P___ -1 6.58971 146.907 0 12 280
1981178N05160 1981 43 WP MM LYNN 1981-06-29 18:00:00 NR 6.69663 146.329 main 986 986 __________P___ -1 6.69663 146.329 0 12 282
1981178N05160 1981 43 WP MM LYNN 1981-06-29 21:00:00 NR 6.83026 145.738 main 1002 1002 __________P___ -1 6.83026 145.738 0 13 284
1981178N05160 1981 43 WP MM LYNN 1981-06-30 00:00:00 NR 7.00000 145.100 main 1033 1033 __________O___ -1 7.00000 145.100 0 14 286
1981178N05160 1981 43 WP MM LYNN 1981-06-30 03:00:00 NR 7.23066 144.343 main 1073 1073 __________P___ -1 7.23066 144.343 0 16 288
1981178N05160 1981 43 WP MM LYNN 1981-06-30 06:00:00 NR 7.49305 143.543 main 1129 1129 __________P___ -1 7.49305 143.543 0 17 288
1981178N05160 1981 43 WP MM LYNN 1981-06-30 09:00:00 NR 7.75883 142.746 main 1163 1153 __________P___ -1 7.75883 142.746 0 16 288
1981178N05160 1981 43 WP MM LYNN 1981-06-30 12:00:00 NR 8.00000 142.000 main 1155 1147 __________O___ -1 8.00000 142.000 0 14 288
1981178N05160 1981 43 WP MM LYNN 1981-06-30 15:00:00 NR 8.17759 141.408 main 1154 1147 __________P___ -1 8.17759 141.408 0 12 286
1981178N05160 1981 43 WP MM LYNN 1981-06-30 18:00:00 NR 8.32834 140.864 main 1149 1145 __________P___ -1 8.32834 140.864 0 11 285
1981178N05160 1981 43 WP MM LYNN 1981-06-30 21:00:00 NR 8.46501 140.314 main 1150 1132 __________P___ -1 8.46501 140.314 0 12 282
1981178N05160 1981 43 WP MM LYNN 1981-07-01 00:00:00 TS 8.58333 139.667 main 1134 1111 O_O_______O___ jtwc_wp WP071981 8.60000 139.700 15 -1 8.50000 139.500 0 1007 8.60000 139.700 0 15 15 279
1981178N05160 1981 43 WP MM LYNN 1981-07-01 03:00:00 TS 8.71008 138.794 main 1111 1094 P_P_______P___ WP071981 8.82043 138.840 15 -1 8.50325 138.450 0 1006 8.75833 138.943 0 15 18 278
1981178N05160 1981 43 WP MM LYNN 1981-07-01 06:00:00 TS 8.81610 137.897 main 1094 1087 O_O_______P___ jtwc_wp WP071981 9.00000 138.000 15 -1 8.50000 137.500 0 1005 8.91526 138.117 0 15 17 276
1981178N05160 1981 43 WP MM LYNN 1981-07-01 09:00:00 TS 8.89046 137.054 main 1088 1077 P_P_______P___ WP071981 9.11477 137.192 15 -1 8.49212 136.712 0 1005 9.06448 137.258 0 15 16 275
1981178N05160 1981 43 WP MM LYNN 1981-07-01 12:00:00 TS 8.96667 136.267 main 1077 990 O_O_______O___ jtwc_wp WP071981 9.20000 136.400 15 -1 8.50000 136.000 0 1005 9.20000 136.400 0 15 16 275
1981178N05160 1981 43 WP MM LYNN 1981-07-01 15:00:00 TS 9.02413 135.483 main 990 905 P_P_______P___ WP071981 9.29982 135.600 15 -1 8.51986 135.250 0 1005 9.25272 135.599 0 16 16 275
1981178N05160 1981 43 WP MM LYNN 1981-07-01 18:00:00 TS 9.10051 134.702 main 905 831 O_O_______P___ jtwc_wp WP071981 9.40000 134.800 15 -1 8.60000 134.500 0 19 1005 9.30153 134.805 0 17 15 277
1981178N05160 1981 43 WP MM LYNN 1981-07-01 21:00:00 TS 9.21283 133.954 main 831 750 P_P_______P___ WP071981 9.48460 134.030 17 -1 8.75431 133.825 0 19 1005 9.39958 134.008 0 18 16 281
1981178N05160 1981 43 WP MM LYNN 1981-07-02 00:00:00 TS 9.40000 133.133 main 740 651 O_O_______O___ jtwc_wp WP071981 9.60000 133.200 20 -1 9.00000 133.000 0 19 1005 9.60000 133.200 1 20 19 284
1981178N05160 1981 43 WP MM LYNN 1981-07-02 03:00:00 TS 9.66719 132.091 main 645 538 P_P_______P___ WP071981 9.70283 132.184 20 -1 9.29093 131.750 0 21 1005 10.0078 132.338 1 21 23 291
1981178N05160 1981 43 WP MM LYNN 1981-07-02 06:00:00 TS 10.2193 130.974 1004 tokyo main 538 473 OOO_______P___ jtwc_wp WP071981 10.0000 131.200 20 -1 12.0000 130.000 2 1004 0 0 0 9.70000 130.500 1 23 1005 10.5126 131.465 1 22 23 302
1981178N05160 1981 43 WP MM LYNN 1981-07-02 09:00:00 TS 10.8697 130.128 main 467 406 PPP_______P___ WP071981 10.7346 130.448 22 -1 12.0077 129.503 2 1004 0 0 10.2694 129.638 1 26 1004 11.0361 130.609 1 23 20 309
1981178N05160 1981 43 WP MM LYNN 1981-07-02 12:00:00 TS 11.4400 129.427 1004 tokyo main 395 339 OOO_______O___ jtwc_wp WP071981 11.5000 129.800 25 -1 12.0000 129.000 2 1004 0 0 0 10.9000 129.000 1 29 1004 11.5000 129.800 1 25 16 305
1981178N05160 1981 43 WP MM LYNN 1981-07-02 15:00:00 TS 11.7859 128.791 main 339 294 PPP_______P___ WP071981 11.8897 129.150 27 -1 11.9774 128.492 2 1004 0 0 11.5172 128.447 1 29 1002 11.7592 129.073 1 28 13 296
1981178N05160 1981 43 WP MM LYNN 1981-07-02 18:00:00 TS 12.0140 128.224 1004 tokyo main 284 239 OOO_______P___ jtwc_wp WP071981 12.1000 128.500 30 -1 12.0000 128.000 2 1004 0 0 0 12.0000 128.000 1 29 1000 11.9560 128.395 1 32 11 289
1981178N05160 1981 43 WP MM LYNN 1981-07-02 21:00:00 TS 12.1560 127.692 main 239 185 PPP_______P___ WP071981 12.2348 127.814 35 0 12.0747 127.580 2 1002 0 0 12.1646 127.629 1 33 999 12.1499 127.745 1 36 11 287
1981178N05160 1981 43 WP MM LYNN 1981-07-03 00:00:00 TS 12.3529 127.118 1000 tokyo main 175 122 OOOO______O___ jtwc_wp WP071981 12.4000 127.100 40 0 12.3000 127.100 2 1000 0 0 0 12.3000 127.200 2 38 998 12.4000 127.000 TD 30 1000 12.4000 127.100 2 40 14 297
1981178N05160 1981 43 WP MM LYNN 1981-07-03 03:00:00 TS 12.7843 126.436 main 118 101 PPPP______P___ WP071981 12.7475 126.335 42 0 12.7701 126.438 2 995 0 0 12.7123 126.583 2 38 995 12.9228 126.401 TD 35 996 12.8379 126.406 2 42 17 304
1981178N05160 1981 43 WP MM LYNN 1981-07-03 06:00:00 TS 13.2800 125.719 35 990 tokyo main 104 64 OOOO______P___ jtwc_wp WP071981 13.2000 125.600 45 0 13.3000 125.700 3 35 990 0 9 100 100 0 13.2000 125.800 2 38 992 13.4000 125.800 TS 40 992 13.3298 125.715 2 45 17 304
1981178N05160 1981 43 WP MM LYNN 1981-07-03 09:00:00 TS 13.7313 125.009 main 64 10 PPPP______P___ WP071981 13.7446 124.993 47 0 13.6798 125.000 3 35 990 0 9 100 100 13.6307 124.813 2 38 992 13.7948 125.200 TS 42 991 13.8068 125.041 2 47 16 301
1981178N05160 1981 43 WP MM LYNN 1981-07-03 12:00:00 TS 14.1000 124.320 35 990 tokyo main 11 11 OOOO______O___ jtwc_wp WP071981 14.2000 124.400 50 0 14.0000 124.300 3 35 990 0 9 100 100 0 14.0000 123.900 2 38 992 14.1000 124.600 TS 45 990 14.2000 124.400 2 50 14 295
1981178N05160 1981 43 WP MM LYNN 1981-07-03 15:00:00 TS 14.3342 123.665 main 44 39 PPPP______P___ WP071981 14.3527 123.669 47 0 14.3226 123.563 3 40 990 0 9 112 112 14.2719 123.352 2 43 991 14.3300 123.977 TS 45 990 14.3938 123.764 2 48 13 289
1981178N05160 1981 43 WP MM LYNN 1981-07-03 18:00:00 TS 14.5005 123.094 45 990 tokyo main 39 35 OOOO______P___ jtwc_wp WP071981 14.4000 123.000 45 0 14.6000 122.900 3 45 990 0 9 125 125 0 14.5000 123.000 3 48 990 14.5000 123.400 TS 45 990 14.5024 123.171 2 47 11 288
1981178N05160 1981 43 WP MM LYNN 1981-07-03 21:00:00 TS 14.6668 122.626 main 55 55 PPPP______P___ WP071981 14.5272 122.532 45 0 14.8073 122.382 3 47 993 0 9 127 127 14.7648 122.685 3 48 990 14.6499 122.890 TS 45 990 14.5847 122.642 2 46 9 293
1981178N05160 1981 43 WP MM LYNN 1981-07-04 00:00:00 TS 14.8400 122.260 50 996 tokyo main 65 46 OOOO______O___ jtwc_wp WP071981 14.7000 122.200 45 0 15.0000 122.000 4 50 996 0 9 130 130 0 15.0000 122.400 3 48 990 14.8000 122.500 TS 45 990 14.7000 122.200 2 45 7 301
1981178N05160 1981 43 WP MM LYNN 1981-07-04 03:00:00 TS 15.0385 121.996 main 46 39 PPPP______P___ WP071981 14.9274 121.927 45 0 15.2269 121.794 4 52 997 0 9 140 140 15.1499 122.072 3 48 990 14.9698 122.277 TS 45 989 14.9185 121.908 2 43 7 311
1981178N05160 1981 43 WP MM LYNN 1981-07-04 06:00:00 TS 15.2762 121.738 55 998 tokyo main 31 0 OOOO______P___ jtwc_wp WP071981 15.2000 121.700 45 0 15.5000 121.500 4 55 998 9 100 100 9 150 150 0 15.3000 121.700 3 48 990 15.2000 122.100 TS 45 989 15.1808 121.691 2 42 8 311
1981178N05160 1981 43 WP MM LYNN 1981-07-04 09:00:00 TS 15.5691 121.373 main 0 0 PPPP______P___ WP071981 15.4923 121.495 42 0 15.8359 120.751 4 55 998 9 100 100 9 150 150 15.5350 121.258 3 48 990 15.5046 121.882 TS 45 989 15.4778 121.479 2 41 10 309
1981178N05160 1981 43 WP MM LYNN 1981-07-04 12:00:00 TS 15.9000 120.940 55 998 tokyo main 0 0 OOOO______O___ jtwc_wp WP071981 15.8000 121.200 40 0 16.2000 120.000 4 55 998 9 100 100 9 150 150 0 15.8000 120.800 3 48 990 15.9000 121.500 TS 45 989 15.8000 121.200 2 40 11 308
1981178N05160 1981 43 WP MM LYNN 1981-07-04 15:00:00 TS 16.2373 120.473 main 0 0 PPPP______P___ WP071981 16.0852 120.687 37 0 16.5568 119.712 4 55 996 9 100 100 9 150 150 16.0273 120.407 3 48 990 16.4004 120.811 TS 42 989 16.1167 120.750 2 40 12 306
1981178N05160 1981 43 WP MM LYNN 1981-07-04 18:00:00 TS 16.5911 119.965 55 994 tokyo main 31 31 OOOO______P___ jtwc_wp WP071981 16.4000 120.100 35 0 16.9000 119.500 4 55 994 9 100 100 9 150 150 0 16.3000 120.000 3 48 990 16.9000 120.000 TS 40 989 16.4556 120.225 2 40 12 305
1981178N05160 1981 43 WP MM LYNN 1981-07-04 21:00:00 TS 16.9442 119.421 main 79 79 PPPP______P___ WP071981 16.7697 119.615 37 0 17.2152 119.023 4 50 992 9 9 150 150 16.6548 119.537 3 48 990 17.2649 119.270 TS 42 991 16.8166 119.662 2 40 13 305
1981178N05160 1981 43 WP MM LYNN 1981-07-05 00:00:00 TS 17.3200 118.860 45 990 tokyo main 147 147 OOOO______O___ jtwc_wp WP071981 17.2000 119.100 40 0 17.5000 118.500 3 45 990 0 9 150 150 0 17.1000 119.000 3 48 990 17.6000 118.600 TS 45 994 17.2000 119.100 2 40 13 307
1981178N05160 1981 43 WP MM LYNN 1981-07-05 03:00:00 TS 17.7455 118.294 main 212 212 PPPP______P___ WP071981 17.7079 118.428 42 0 17.7271 118.114 3 45 990 0 9 150 150 17.6579 118.328 3 48 990 18.0073 118.005 TS 47 992 17.6273 118.593 2 42 14 309
1981178N05160 1981 43 WP MM LYNN 1981-07-05 06:00:00 TS 18.1744 117.759 45 990 tokyo main 272 272 OOOO______P___ jtwc_wp WP071981 18.2000 117.800 45 0 18.0000 117.700 3 45 990 0 9 150 150 0 18.2000 117.700 3 48 990 18.4000 117.500 STS 50 991 18.0719 118.093 2 45 12 311
1981178N05160 1981 43 WP MM LYNN 1981-07-05 09:00:00 TS 18.5538 117.323 main 336 336 PPPP______P___ WP071981 18.5718 117.449 47 0 18.4201 117.123 3 45 990 0 9 150 150 18.5718 117.349 3 48 990 18.6996 117.099 STS 55 988 18.5055 117.596 2 47 11 312
1981178N05160 1981 43 WP MM LYNN 1981-07-05 12:00:00 TS 18.9200 116.880 45 990 tokyo main 387 383 OOOO______O___ jtwc_wp WP071981 18.9000 117.100 50 0 18.9000 116.500 3 45 990 0 9 150 150 0 18.9000 117.000 3 48 990 19.0000 116.700 STS 60 986 18.9000 117.100 2 50 13 308
1981178N05160 1981 43 WP MM LYNN 1981-07-05 15:00:00 TS 19.3281 116.289 main 383 323 PPPP______P___ WP071981 19.2731 116.450 50 0 19.3800 115.913 3 45 990 0 9 150 150 19.3305 116.366 3 53 987 19.4228 116.143 STS 60 984 19.2344 116.571 2 50 13 305
1981178N05160 1981 43 WP MM LYNN 1981-07-05 18:00:00 TS 19.6850 115.709 45 990 tokyo main 323 287 OOOO______P___ jtwc_wp WP071981 19.6000 115.800 50 0 19.8000 115.400 3 45 990 0 9 150 150 0 19.7000 115.700 3 58 985 19.8000 115.600 STS 60 983 19.5251 116.047 2 50 11 302
1981178N05160 1981 43 WP MM LYNN 1981-07-05 21:00:00 TS 19.9169 115.281 main 287 253 PPPP______P___ WP071981 19.8370 115.412 50 0 20.0872 115.020 3 47 987 0 9 175 150 19.8872 115.212 3 58 982 19.9948 115.212 STS 57 982 19.7783 115.549 2 50 8 298
1981178N05160 1981 43 WP MM LYNN 1981-07-06 00:00:00 TS 20.0800 114.920 50 985 tokyo main 253 236 OOOO______O___ jtwc_wp WP071981 20.0000 115.100 50 0 20.3000 114.700 4 50 985 0 2 200 150 0 20.0000 114.800 3 58 980 20.1000 114.900 STS 55 982 20.0000 115.100 2 50 8 294
1981178N05160 1981 43 WP MM LYNN 1981-07-06 03:00:00 TS 20.2220 114.540 main 235 208 PPPP______P___ WP071981 20.0926 114.685 50 0 20.5075 114.335 4 50 985 0 2 225 150 20.1275 114.370 3 58 980 20.1999 114.585 STS 55 982 20.1826 114.728 2 51 7 293
1981178N05160 1981 43 WP MM LYNN 1981-07-06 06:00:00 TS 20.3683 114.201 50 985 tokyo main 208 172 OOOO______P___ jtwc_wp WP071981 20.2000 114.300 50 0 20.7000 114.000 4 50 985 0 2 250 150 0 20.3000 114.000 3 58 980 20.3000 114.300 STS 55 982 20.3415 114.403 2 52 7 301
1981178N05160 1981 43 WP MM LYNN 1981-07-06 09:00:00 TS 20.5673 113.933 main 172 142 PPPP______P___ WP071981 20.4197 114.050 52 0 20.9074 113.735 4 52 985 0 2 250 150 20.5923 113.728 3 58 980 20.4124 114.050 STS 55 982 20.5046 114.103 2 53 7 312
1981178N05160 1981 43 WP MM LYNN 1981-07-06 12:00:00 TS 20.8000 113.680 55 985 tokyo main 142 108 OOOO______O___ jtwc_wp WP071981 20.7000 113.800 55 0 21.1000 113.500 4 55 985 9 50 50 2 250 150 0 20.9000 113.500 3 58 980 20.6000 113.800 STS 55 983 20.7000 113.800 2 55 7 313
1981178N05160 1981 43 WP MM LYNN 1981-07-06 15:00:00 TS 21.0419 113.382 main 108 67 PPPP______P___ WP071981 20.9926 113.408 55 0 21.2424 113.257 4 55 985 9 50 50 2 225 150 21.1000 113.242 3 58 980 20.9275 113.508 STS 55 983 20.9471 113.493 2 52 8 312
1981178N05160 1981 43 WP MM LYNN 1981-07-06 18:00:00 TS 21.3063 113.075 55 985 tokyo main 67 30 OOOO______P___ jtwc_wp WP071981 21.3000 113.000 55 0 21.4000 113.000 4 55 985 9 50 50 2 200 150 0 21.3000 113.000 3 58 980 21.3000 113.200 STS 55 984 21.2313 113.173 2 50 8 315
1981178N05160 1981 43 WP MM LYNN 1981-07-06 21:00:00 TS 21.5803 112.806 main 30 0 PPPP______P___ WP071981 21.5772 112.714 50 0 21.6049 112.722 4 47 987 9 2 175 150 21.5847 112.837 3 58 983 21.5847 112.937 STS 50 984 21.5500 112.817 2 47 8 317
1981178N05160 1981 43 WP MM LYNN 1981-07-07 00:00:00 TS 21.9000 112.474 40 990 tokyo main 0 0 OOOO______O___ jtwc_wp WP071981 21.9000 112.400 45 0 21.9000 112.400 3 40 990 0 9 150 150 0 21.9000 112.600 3 58 986 21.9000 112.600 TS 45 985 21.9000 112.400 2 45 10 314
1981178N05160 1981 43 WP MM LYNN 1981-07-07 03:00:00 TS 22.2936 112.023 main 0 0 PPPP______P___ WP071981 22.3424 111.953 37 0 22.3348 112.038 3 993 0 9 22.2075 112.160 3 48 988 22.3182 112.101 TS 40 985 22.2775 111.904 2 38 12 311
1981178N05160 1981 43 WP MM LYNN 1981-07-07 06:00:00 TS 22.6950 111.502 996 tokyo main 0 0 OOOO______P___ jtwc_wp WP071981 22.8000 111.400 30 -1 22.8000 111.600 2 996 0 0 0 22.5000 111.600 2 38 990 22.8000 111.500 TS 35 985 22.6752 111.341 2 32 12 307
1981178N05160 1981 43 WP MM LYNN 1981-07-07 09:00:00 TS 23.0227 110.974 main 0 0 PPP_______P___ WP071981 23.1781 110.770 25 -1 23.1797 111.102 2 997 0 0 22.7567 111.067 2 38 992 TS 23.0853 110.733 2 26 12 299
1981178N05160 1981 43 WP MM LYNN 1981-07-07 12:00:00 TS 23.2778 110.367 998 tokyo main 0 0 OOO_______O___ jtwc_wp WP071981 23.5000 110.100 20 -1 23.5000 110.500 2 998 0 0 0 23.0000 110.400 2 38 995 23.5000 110.100 6 20 13 288
1981178N05160 1981 43 WP MM LYNN 1981-07-07 15:00:00 TS 23.4421 109.601 main 0 0 _PP___________ WP071981 -1 23.7659 109.783 2 999 0 0 23.2801 109.511 2 30 996 6 16 282
1981178N05160 1981 43 WP MM LYNN 1981-07-07 18:00:00 TS 23.6250 108.625 1000 tokyo main 0 0 _OO___________ -1 24.0000 109.000 2 1000 0 0 0 23.5000 108.500 1 23 998 6 19 274
1981178N05160 1981 43 WP MM LYNN 1981-07-07 21:00:00 TS 23.5909 107.492 main 0 0 __P___________ -1 2 0 0 23.5909 107.492 1 21 999 6 19 269
1981178N05160 1981 43 WP MM LYNN 1981-07-08 00:00:00 TS 23.6000 106.500 main 0 __O___________ -1 23.6000 106.500 0 19 1000 18 271

デジタル台風データ・検索

IBTrACS Databaseについて

本データベースは、米国NOAAが公開する1842年以降の世界の熱帯低気圧のベストトラックデータアーカイブInternational Best Track Archive for Climate Stewardship (IBTrACS)を、ウェブで閲覧しやすい形式に変換したものです。

最終更新日:2021-12-01